createdAt,value
2024-03-16T00:01:05.054Z,4.85
2024-03-16T00:03:33.232Z,5.38
2024-03-16T00:06:01.011Z,4.57
2024-03-16T00:08:28.835Z,5.82
2024-03-16T00:10:56.541Z,4.88
2024-03-16T00:13:24.262Z,5.70
2024-03-16T00:15:52.005Z,5.60
2024-03-16T00:18:19.812Z,5.00
2024-03-16T00:20:47.559Z,5.93
2024-03-16T00:23:15.328Z,5.25
2024-03-16T00:25:42.994Z,5.28
2024-03-16T00:28:12.198Z,5.30
2024-03-16T00:30:40.150Z,5.93
2024-03-16T00:33:08.704Z,5.90
2024-03-16T00:35:36.855Z,5.90
2024-03-16T00:38:04.834Z,5.67
2024-03-16T00:40:33.767Z,5.30
2024-03-16T00:43:01.671Z,5.22
2024-03-16T00:45:29.742Z,5.07
2024-03-16T00:47:57.730Z,5.28
2024-03-16T00:50:25.674Z,4.60
2024-03-16T00:52:53.394Z,4.40
2024-03-16T00:55:21.566Z,4.67
2024-03-16T00:57:49.281Z,4.45
2024-03-16T01:00:19.526Z,5.50
2024-03-16T01:02:47.325Z,4.30
2024-03-16T01:05:15.541Z,5.20
2024-03-16T01:07:43.241Z,5.93
2024-03-16T01:10:13.357Z,4.17
2024-03-16T01:12:41.330Z,4.28
2024-03-16T01:15:10.921Z,4.55
2024-03-16T01:17:38.752Z,4.97
2024-03-16T01:20:08.768Z,3.03
2024-03-16T01:22:36.523Z,2.83
2024-03-16T01:25:04.761Z,2.13
2024-03-16T01:27:34.567Z,2.50
2024-03-16T01:30:03.701Z,1.75
2024-03-16T01:32:31.587Z,1.52
2024-03-16T01:34:59.999Z,1.80
2024-03-16T01:37:28.059Z,1.10
2024-03-16T01:39:57.090Z,0.60
2024-03-16T01:42:25.023Z,0.75
2024-03-16T01:45:08.263Z,0.60
2024-03-16T01:47:36.076Z,0.70
2024-03-16T01:50:04.205Z,0.50
2024-03-16T01:52:31.884Z,0.60
2024-03-16T01:54:59.885Z,1.33
2024-03-16T01:57:27.642Z,0.60
2024-03-16T01:59:55.497Z,0.93
2024-03-16T02:02:38.837Z,0.60
2024-03-16T02:05:07.145Z,1.33
2024-03-16T02:07:35.225Z,0.52
2024-03-16T02:10:06.187Z,0.70
2024-03-16T02:12:34.294Z,0.60
2024-03-16T02:15:02.235Z,0.70
2024-03-16T02:17:30.181Z,0.50
2024-03-16T02:19:57.968Z,0.73
2024-03-16T02:22:25.727Z,0.90
2024-03-16T02:24:53.581Z,0.40
2024-03-16T02:27:21.595Z,0.80
2024-03-16T02:29:49.564Z,0.80
2024-03-16T02:32:17.303Z,0.95
2024-03-16T02:34:45.456Z,0.50
2024-03-16T02:37:13.197Z,0.50
2024-03-16T02:39:41.123Z,0.47
2024-03-16T02:42:08.863Z,0.70
2024-03-16T02:44:36.656Z,0.85
2024-03-16T02:47:05.816Z,0.45
2024-03-16T02:49:33.722Z,0.57
2024-03-16T02:52:01.535Z,0.77
2024-03-16T02:54:29.466Z,0.52
2024-03-16T02:56:57.297Z,0.85
2024-03-16T02:59:26.079Z,0.37
2024-03-16T03:01:57.914Z,0.80
2024-03-16T03:04:38.714Z,0.60
2024-03-16T03:07:11.446Z,0.60
2024-03-16T03:09:39.765Z,1.20
2024-03-16T03:12:07.857Z,1.20
2024-03-16T03:14:35.571Z,0.93
2024-03-16T03:17:03.356Z,1.33
2024-03-16T03:19:31.093Z,1.38
2024-03-16T03:21:59.056Z,1.30
2024-03-16T03:24:26.835Z,1.40
2024-03-16T03:26:55.530Z,2.00
2024-03-16T03:29:23.833Z,2.00
2024-03-16T03:31:51.519Z,1.70
2024-03-16T03:34:19.369Z,1.50
2024-03-16T03:36:47.166Z,1.63
2024-03-16T03:39:15.626Z,1.90
2024-03-16T03:41:43.524Z,1.55
2024-03-16T03:44:22.230Z,1.75
2024-03-16T03:46:56.807Z,1.73
2024-03-16T03:49:37.693Z,1.83
2024-03-16T03:52:10.149Z,1.88
2024-03-16T03:54:40.249Z,2.10
2024-03-16T03:57:08.078Z,1.80
2024-03-16T03:59:35.857Z,2.00
2024-03-16T04:02:03.649Z,2.03
2024-03-16T04:04:31.481Z,1.23
2024-03-16T04:06:59.310Z,1.58
2024-03-16T04:09:27.212Z,1.80
2024-03-16T04:11:55.033Z,1.70
2024-03-16T04:14:22.843Z,1.40
2024-03-16T04:16:50.805Z,1.75
2024-03-16T04:19:18.563Z,1.77
2024-03-16T04:21:51.392Z,1.40
2024-03-16T04:24:19.436Z,1.73
2024-03-16T04:26:47.194Z,1.38
2024-03-16T04:29:14.939Z,1.33
2024-03-16T04:31:42.674Z,1.00
2024-03-16T04:34:11.247Z,1.95
2024-03-16T04:36:39.120Z,1.10
2024-03-16T04:39:06.809Z,2.17
2024-03-16T04:41:34.670Z,1.17
2024-03-16T04:44:02.459Z,1.83
2024-03-16T04:46:34.464Z,1.10
2024-03-16T04:49:02.544Z,1.50
2024-03-16T04:51:30.405Z,1.20
2024-03-16T04:53:58.471Z,0.93
2024-03-16T04:56:26.864Z,1.70
2024-03-16T04:58:55.084Z,0.88
2024-03-16T05:01:23.110Z,1.00
2024-03-16T05:03:51.349Z,0.80
2024-03-16T05:06:19.220Z,1.10
2024-03-16T05:08:48.975Z,1.05
2024-03-16T05:11:17.023Z,0.73
2024-03-16T05:13:45.825Z,1.10
2024-03-16T05:16:13.620Z,1.33
2024-03-16T05:18:41.398Z,0.80
2024-03-16T05:21:09.874Z,1.00
2024-03-16T05:23:37.580Z,1.30
2024-03-16T05:26:05.342Z,1.15
2024-03-16T05:28:33.131Z,1.27
2024-03-16T05:31:01.909Z,0.80
2024-03-16T05:33:29.694Z,1.15
2024-03-16T05:35:58.240Z,1.80
2024-03-16T05:38:26.049Z,1.58
2024-03-16T05:40:53.776Z,0.70
2024-03-16T05:43:21.741Z,1.33
2024-03-16T05:45:52.543Z,1.00
2024-03-16T05:48:20.333Z,0.70
2024-03-16T05:50:51.013Z,0.80
2024-03-16T05:53:18.768Z,0.77
2024-03-16T05:55:46.514Z,0.77
2024-03-16T05:58:14.409Z,1.35
2024-03-16T06:00:42.235Z,0.63
2024-03-16T06:03:09.997Z,0.80
2024-03-16T06:05:37.778Z,0.98
2024-03-16T06:08:05.972Z,1.00
2024-03-16T06:10:33.985Z,1.45
2024-03-16T06:13:02.962Z,0.85
2024-03-16T06:15:30.897Z,0.55
2024-03-16T06:17:58.927Z,0.60
2024-03-16T06:20:26.702Z,0.60
2024-03-16T06:22:56.808Z,0.52
2024-03-16T06:25:25.738Z,0.77
2024-03-16T06:28:06.882Z,0.98
2024-03-16T06:30:35.555Z,0.73
2024-03-16T06:33:21.727Z,0.60
2024-03-16T06:35:50.165Z,0.50
2024-03-16T06:38:18.099Z,0.75
2024-03-16T06:40:45.970Z,0.50
2024-03-16T06:43:13.854Z,1.27
2024-03-16T06:45:41.789Z,0.70
2024-03-16T06:48:10.364Z,0.60
2024-03-16T06:50:38.925Z,0.60
2024-03-16T06:53:07.825Z,1.00
2024-03-16T06:55:37.035Z,0.80
2024-03-16T06:58:06.154Z,0.73
2024-03-16T07:00:34.102Z,0.70
2024-03-16T07:03:01.944Z,0.70
2024-03-16T07:05:29.740Z,0.50
2024-03-16T07:07:58.948Z,1.13
2024-03-16T07:10:26.893Z,0.98
2024-03-16T07:12:54.825Z,0.32
2024-03-16T07:15:22.667Z,0.80
2024-03-16T07:17:50.584Z,0.45
2024-03-16T07:20:18.435Z,0.50
2024-03-16T07:22:46.242Z,0.70
2024-03-16T07:25:15.137Z,0.77
2024-03-16T07:27:43.215Z,0.73
2024-03-16T07:30:11.378Z,1.00
2024-03-16T07:32:39.427Z,1.60
2024-03-16T07:35:10.976Z,0.60
2024-03-16T07:37:38.841Z,0.80
2024-03-16T07:40:15.417Z,0.90
2024-03-16T07:42:43.655Z,0.80
2024-03-16T07:45:11.710Z,0.85
2024-03-16T07:47:39.559Z,0.63
2024-03-16T07:50:09.027Z,1.02
2024-03-16T07:52:37.069Z,1.48
2024-03-16T07:55:08.532Z,0.73
2024-03-16T07:57:36.635Z,1.10
2024-03-16T08:00:05.998Z,0.88
2024-03-16T08:02:39.810Z,0.63
2024-03-16T08:05:10.304Z,1.60
2024-03-16T08:07:43.112Z,1.05
2024-03-16T08:10:11.534Z,1.17
2024-03-16T08:12:39.550Z,0.73
2024-03-16T08:15:07.924Z,0.93
2024-03-16T08:17:35.870Z,1.77
2024-03-16T08:20:04.502Z,0.75
2024-03-16T08:22:33.016Z,0.60
2024-03-16T08:25:01.382Z,1.02
2024-03-16T08:27:33.401Z,0.80
2024-03-16T08:30:04.783Z,1.50
2024-03-16T08:32:34.234Z,0.82
2024-03-16T08:35:02.892Z,1.25
2024-03-16T08:37:30.840Z,1.10
2024-03-16T08:39:59.068Z,1.13
2024-03-16T08:42:26.992Z,1.08
2024-03-16T08:44:54.880Z,0.70
2024-03-16T08:47:23.202Z,0.90
2024-03-16T08:49:51.027Z,0.80
2024-03-16T08:52:19.390Z,0.98
2024-03-16T08:54:47.629Z,0.53
2024-03-16T08:57:15.485Z,0.80
2024-03-16T08:59:43.803Z,0.47
2024-03-16T09:02:13.833Z,0.80
2024-03-16T09:04:41.679Z,0.40
2024-03-16T09:07:09.681Z,0.90
2024-03-16T09:09:37.563Z,0.82
2024-03-16T09:12:05.939Z,0.70
2024-03-16T09:14:33.932Z,0.90
2024-03-16T09:17:01.759Z,0.88
2024-03-16T09:19:29.656Z,0.70
2024-03-16T09:21:57.560Z,0.65
2024-03-16T09:24:25.393Z,0.70
2024-03-16T09:26:53.253Z,1.03
2024-03-16T09:29:21.550Z,0.95
2024-03-16T09:31:49.562Z,1.40
2024-03-16T09:34:17.904Z,1.40
2024-03-16T09:36:45.922Z,1.23
2024-03-16T09:39:13.680Z,1.40
2024-03-16T09:41:41.557Z,0.93
